sensor_id;sensor_type;location;lat;lon;timestamp;pressure;altitude;pressure_sealevel;temperature;humidity
36380;BME280;22411;53.016;18.632;2023-06-01T00:01:38;100788.44;;;14.58;82.84
36380;BME280;22411;53.016;18.632;2023-06-01T00:04:04;100786.31;;;14.52;90.87
36380;BME280;22411;53.016;18.632;2023-06-01T00:06:30;100777.19;;;14.47;100.00
36380;BME280;22411;53.016;18.632;2023-06-01T00:08:57;100786.09;;;14.33;88.67
36380;BME280;22411;53.016;18.632;2023-06-01T00:11:24;100784.69;;;14.29;90.72
36380;BME280;22411;53.016;18.632;2023-06-01T00:13:50;100780.69;;;14.25;87.44
36380;BME280;22411;53.016;18.632;2023-06-01T00:16:17;100783.38;;;14.23;88.25
36380;BME280;22411;53.016;18.632;2023-06-01T00:18:43;100775.56;;;14.23;88.94
36380;BME280;22411;53.016;18.632;2023-06-01T00:21:09;100770.03;;;14.17;88.12
36380;BME280;22411;53.016;18.632;2023-06-01T00:23:34;100775.56;;;14.23;87.56
36380;BME280;22411;53.016;18.632;2023-06-01T00:26:01;100774.63;;;14.13;87.77
36380;BME280;22411;53.016;18.632;2023-06-01T00:28:27;100778.31;;;14.10;87.57
36380;BME280;22411;53.016;18.632;2023-06-01T00:30:53;100777.16;;;14.03;89.75
36380;BME280;22411;53.016;18.632;2023-06-01T00:33:19;100771.22;;;14.01;89.20
36380;BME280;22411;53.016;18.632;2023-06-01T00:35:45;100780.69;;;14.02;89.49
36380;BME280;22411;53.016;18.632;2023-06-01T00:38:11;100777.25;;;14.02;89.63
36380;BME280;22411;53.016;18.632;2023-06-01T00:40:37;100773.00;;;14.01;89.29
36380;BME280;22411;53.016;18.632;2023-06-01T00:43:03;100770.88;;;13.95;89.71
36380;BME280;22411;53.016;18.632;2023-06-01T00:45:28;100770.28;;;13.91;89.82
36380;BME280;22411;53.016;18.632;2023-06-01T00:47:54;100770.19;;;13.93;90.72
36380;BME280;22411;53.016;18.632;2023-06-01T00:50:21;100772.69;;;13.83;92.02
36380;BME280;22411;53.016;18.632;2023-06-01T00:52:48;100769.72;;;13.76;93.13
36380;BME280;22411;53.016;18.632;2023-06-01T00:55:16;100769.25;;;13.71;93.48
36380;BME280;22411;53.016;18.632;2023-06-01T00:57:45;100766.88;;;13.68;94.43
36380;BME280;22411;53.016;18.632;2023-06-01T01:00:11;100762.50;;;13.69;94.69
36380;BME280;22411;53.016;18.632;2023-06-01T01:02:41;100761.19;;;13.63;95.16
36380;BME280;22411;53.016;18.632;2023-06-01T01:05:08;100766.75;;;13.58;95.60
36380;BME280;22411;53.016;18.632;2023-06-01T01:07:42;100763.66;;;13.53;96.25
36380;BME280;22411;53.016;18.632;2023-06-01T01:10:31;100759.28;;;13.54;100.00
36380;BME280;22411;53.016;18.632;2023-06-01T01:13:06;100762.22;;;13.49;100.00
36380;BME280;22411;53.016;18.632;2023-06-01T01:18:15;100757.41;;;13.45;100.00
36380;BME280;22411;53.016;18.632;2023-06-01T01:20:52;100757.03;;;13.38;100.00
36380;BME280;22411;53.016;18.632;2023-06-01T01:29:19;100749.19;;;13.27;100.00
36380;BME280;22411;53.016;18.632;2023-06-01T01:31:49;100748.72;;;13.22;100.00
36380;BME280;22411;53.016;18.632;2023-06-01T01:34:17;100756.63;;;13.20;100.00
36380;BME280;22411;53.016;18.632;2023-06-01T01:36:43;100759.44;;;13.17;100.00
36380;BME280;22411;53.016;18.632;2023-06-01T01:39:09;100748.81;;;13.20;100.00
36380;BME280;22411;53.016;18.632;2023-06-01T01:41:35;100752.38;;;13.19;100.00
36380;BME280;22411;53.016;18.632;2023-06-01T01:44:01;100752.47;;;13.18;100.00
36380;BME280;22411;53.016;18.632;2023-06-01T01:46:29;100743.00;;;13.17;100.00
36380;BME280;22411;53.016;18.632;2023-06-01T01:51:53;100750.31;;;13.12;100.00
36380;BME280;22411;53.016;18.632;2023-06-01T01:54:20;100746.41;;;13.06;100.00
36380;BME280;22411;53.016;18.632;2023-06-01T01:56:48;100740.47;;;12.93;100.00
36380;BME280;22411;53.016;18.632;2023-06-01T01:59:15;100745.03;;;12.78;100.00
36380;BME280;22411;53.016;18.632;2023-06-01T02:01:41;100747.84;;;12.75;100.00
36380;BME280;22411;53.016;18.632;2023-06-01T02:04:10;100745.50;;;12.72;100.00
36380;BME280;22411;53.016;18.632;2023-06-01T02:06:36;100742.28;;;12.68;100.00
36380;BME280;22411;53.016;18.632;2023-06-01T02:09:03;100740.13;;;12.62;100.00
36380;BME280;22411;53.016;18.632;2023-06-01T02:11:33;100740.25;;;12.61;100.00
36380;BME280;22411;53.016;18.632;2023-06-01T02:13:59;100737.50;;;12.51;100.00
36380;BME280;22411;53.016;18.632;2023-06-01T02:16:25;100742.91;;;12.48;100.00
36380;BME280;22411;53.016;18.632;2023-06-01T02:18:51;100733.56;;;12.45;100.00
36380;BME280;22411;53.016;18.632;2023-06-01T02:21:17;100740.19;;;12.49;100.00
36380;BME280;22411;53.016;18.632;2023-06-01T02:23:42;100728.94;;;12.49;100.00
36380;BME280;22411;53.016;18.632;2023-06-01T02:26:09;100734.06;;;12.50;100.00
36380;BME280;22411;53.016;18.632;2023-06-01T02:28:38;100728.03;;;12.50;100.00
36380;BME280;22411;53.016;18.632;2023-06-01T02:31:05;100725.31;;;12.51;100.00
36380;BME280;22411;53.016;18.632;2023-06-01T02:33:31;100721.16;;;12.49;100.00
36380;BME280;22411;53.016;18.632;2023-06-01T02:35:57;100723.88;;;12.47;100.00
36380;BME280;22411;53.016;18.632;2023-06-01T02:38:23;100728.44;;;12.44;100.00
36380;BME280;22411;53.016;18.632;2023-06-01T02:40:48;100730.06;;;12.34;100.00
36380;BME280;22411;53.016;18.632;2023-06-01T02:43:14;100721.06;;;12.26;100.00
36380;BME280;22411;53.016;18.632;2023-06-01T02:45:40;100722.00;;;12.25;100.00
36380;BME280;22411;53.016;18.632;2023-06-01T02:48:06;100722.00;;;12.25;100.00
36380;BME280;22411;53.016;18.632;2023-06-01T02:50:31;100719.28;;;12.27;100.00
36380;BME280;22411;53.016;18.632;2023-06-01T02:52:57;100722.50;;;12.30;100.00
36380;BME280;22411;53.016;18.632;2023-06-01T02:55:23;100718.75;;;12.35;100.00
36380;BME280;22411;53.016;18.632;2023-06-01T02:57:48;100712.81;;;12.33;100.00
36380;BME280;22411;53.016;18.632;2023-06-01T03:00:14;100715.19;;;12.36;100.00
36380;BME280;22411;53.016;18.632;2023-06-01T03:02:47;100716.03;;;12.36;100.00
36380;BME280;22411;53.016;18.632;2023-06-01T03:05:13;100716.66;;;12.40;100.00
36380;BME280;22411;53.016;18.632;2023-06-01T03:07:43;100714.13;;;12.38;100.00
36380;BME280;22411;53.016;18.632;2023-06-01T03:10:10;100717.56;;;12.39;100.00
36380;BME280;22411;53.016;18.632;2023-06-01T03:12:36;100711.66;;;12.37;100.00
36380;BME280;22411;53.016;18.632;2023-06-01T03:15:02;100705.19;;;12.42;100.00
36380;BME280;22411;53.016;18.632;2023-06-01T03:17:29;100702.69;;;12.41;100.00
36380;BME280;22411;53.016;18.632;2023-06-01T03:19:55;100704.84;;;12.47;100.00
36380;BME280;22411;53.016;18.632;2023-06-01T03:22:21;100704.72;;;12.48;100.00
36380;BME280;22411;53.016;18.632;2023-06-01T03:24:47;100702.25;;;12.47;100.00
36380;BME280;22411;53.016;18.632;2023-06-01T03:27:16;100701.91;;;12.51;100.00
36380;BME280;22411;53.016;18.632;2023-06-01T03:29:41;100704.41;;;12.53;100.00
36380;BME280;22411;53.016;18.632;2023-06-01T03:32:08;100711.66;;;12.61;100.00
36380;BME280;22411;53.016;18.632;2023-06-01T03:34:33;100706.94;;;12.66;100.00
36380;BME280;22411;53.016;18.632;2023-06-01T03:37:05;100703.41;;;12.67;100.00
36380;BME280;22411;53.016;18.632;2023-06-01T03:39:31;100709.91;;;12.72;100.00
36380;BME280;22411;53.016;18.632;2023-06-01T03:42:01;100708.97;;;12.73;100.00
36380;BME280;22411;53.016;18.632;2023-06-01T03:44:26;100698.34;;;12.76;100.00
36380;BME280;22411;53.016;18.632;2023-06-01T03:46:52;100699.75;;;12.80;100.00
36380;BME280;22411;53.016;18.632;2023-06-01T03:49:18;100700.22;;;12.86;100.00
36380;BME280;22411;53.016;18.632;2023-06-01T03:51:44;100699.19;;;12.88;100.00
36380;BME280;22411;53.016;18.632;2023-06-01T03:54:09;100701.66;;;12.90;100.00
36380;BME280;22411;53.016;18.632;2023-06-01T03:56:35;100697.56;;;12.98;100.00
36380;BME280;22411;53.016;18.632;2023-06-01T03:59:01;100691.88;;;13.04;100.00
36380;BME280;22411;53.016;18.632;2023-06-01T04:01:27;100696.13;;;13.05;100.00
36380;BME280;22411;53.016;18.632;2023-06-01T04:03:56;100698.88;;;13.04;100.00
36380;BME280;22411;53.016;18.632;2023-06-01T04:06:22;100694.72;;;13.13;100.00
36380;BME280;22411;53.016;18.632;2023-06-01T04:08:52;100695.44;;;13.15;100.00
36380;BME280;22411;53.016;18.632;2023-06-01T04:11:23;100687.69;;;13.26;100.00
36380;BME280;22411;53.016;18.632;2023-06-01T04:13:48;100686.03;;;13.25;100.00
36380;BME280;22411;53.016;18.632;2023-06-01T04:16:15;100687.81;;;13.24;100.00
36380;BME280;22411;53.016;18.632;2023-06-01T04:18:40;100683.44;;;13.25;100.00
36380;BME280;22411;53.016;18.632;2023-06-01T04:21:06;100682.94;;;13.31;100.00
36380;BME280;22411;53.016;18.632;2023-06-01T04:23:35;100680.56;;;13.39;100.00
36380;BME280;22411;53.016;18.632;2023-06-01T04:26:02;100686.03;;;13.36;100.00
36380;BME280;22411;53.016;18.632;2023-06-01T04:28:31;100681.31;;;13.41;100.00
36380;BME280;22411;53.016;18.632;2023-06-01T04:30:58;100676.56;;;13.46;100.00
36380;BME280;22411;53.016;18.632;2023-06-01T04:33:24;100673.59;;;13.51;100.00
36380;BME280;22411;53.016;18.632;2023-06-01T04:35:51;100669.22;;;13.51;100.00
36380;BME280;22411;53.016;18.632;2023-06-01T04:38:20;100668.50;;;13.60;100.00
36380;BME280;22411;53.016;18.632;2023-06-01T04:40:46;100660.22;;;13.67;100.00
36380;BME280;22411;53.016;18.632;2023-06-01T04:43:12;100658.06;;;13.72;100.00
36380;BME280;22411;53.016;18.632;2023-06-01T04:45:38;100658.19;;;13.70;100.00
36380;BME280;22411;53.016;18.632;2023-06-01T04:48:07;100651.19;;;13.82;100.00
36380;BME280;22411;53.016;18.632;2023-06-01T04:50:34;100645.47;;;13.88;100.00
36380;BME280;22411;53.016;18.632;2023-06-01T04:53:00;100650.88;;;13.96;100.00
36380;BME280;22411;53.016;18.632;2023-06-01T04:55:27;100646.28;;;14.00;100.00
36380;BME280;22411;53.016;18.632;2023-06-01T04:57:52;100652.06;;;14.03;100.00
36380;BME280;22411;53.016;18.632;2023-06-01T05:00:19;100647.69;;;14.04;100.00
36380;BME280;22411;53.016;18.632;2023-06-01T05:02:46;100638.91;;;14.05;100.00
36380;BME280;22411;53.016;18.632;2023-06-01T05:05:14;100644.94;;;14.05;100.00
36380;BME280;22411;53.016;18.632;2023-06-01T05:07:40;100650.28;;;14.04;100.00
36380;BME280;22411;53.016;18.632;2023-06-01T05:10:11;100641.38;;;14.06;100.00
36380;BME280;22411;53.016;18.632;2023-06-01T05:12:37;100642.09;;;14.08;100.00
36380;BME280;22411;53.016;18.632;2023-06-01T05:15:05;100636.25;;;14.16;100.00
36380;BME280;22411;53.016;18.632;2023-06-01T05:17:32;100636.59;;;14.23;100.00
36380;BME280;22411;53.016;18.632;2023-06-01T05:19:58;100628.59;;;14.35;100.00
36380;BME280;22411;53.016;18.632;2023-06-01T05:22:24;100635.78;;;14.43;100.00
36380;BME280;22411;53.016;18.632;2023-06-01T05:24:50;100628.31;;;14.50;100.00
36380;BME280;22411;53.016;18.632;2023-06-01T05:27:16;100632.44;;;14.52;100.00
36380;BME280;22411;53.016;18.632;2023-06-01T05:29:42;100634.53;;;14.58;100.00
36380;BME280;22411;53.016;18.632;2023-06-01T05:32:08;100623.50;;;14.66;100.00
36380;BME280;22411;53.016;18.632;2023-06-01T05:34:34;100624.34;;;14.76;100.00
36380;BME280;22411;53.016;18.632;2023-06-01T05:37:01;100629.75;;;14.84;100.00
36380;BME280;22411;53.016;18.632;2023-06-01T05:39:27;100623.50;;;14.97;100.00
36380;BME280;22411;53.016;18.632;2023-06-01T05:41:54;100624.50;;;15.05;100.00
36380;BME280;22411;53.016;18.632;2023-06-01T05:44:20;100623.44;;;15.17;100.00
36380;BME280;22411;53.016;18.632;2023-06-01T05:46:46;100621.03;;;15.26;100.00
36380;BME280;22411;53.016;18.632;2023-06-01T05:49:12;100620.09;;;15.36;100.00
36380;BME280;22411;53.016;18.632;2023-06-01T05:51:37;100618.47;;;15.55;100.00
36380;BME280;22411;53.016;18.632;2023-06-01T05:54:06;100618.53;;;15.64;100.00
36380;BME280;22411;53.016;18.632;2023-06-01T05:56:32;100627.22;;;15.75;100.00
36380;BME280;22411;53.016;18.632;2023-06-01T05:58:58;100623.22;;;15.80;100.00
36380;BME280;22411;53.016;18.632;2023-06-01T06:01:24;100615.56;;;15.88;100.00
36380;BME280;22411;53.016;18.632;2023-06-01T06:03:53;100618.69;;;15.92;100.00
36380;BME280;22411;53.016;18.632;2023-06-01T06:06:18;100620.34;;;16.03;100.00
36380;BME280;22411;53.016;18.632;2023-06-01T06:08:44;100615.41;;;16.00;100.00
36380;BME280;22411;53.016;18.632;2023-06-01T06:11:10;100611.97;;;15.99;100.00
36380;BME280;22411;53.016;18.632;2023-06-01T06:13:36;100610.75;;;15.93;100.00
36380;BME280;22411;53.016;18.632;2023-06-01T06:16:01;100607.84;;;15.97;100.00
36380;BME280;22411;53.016;18.632;2023-06-01T06:18:27;100603.19;;;16.00;100.00
36380;BME280;22411;53.016;18.632;2023-06-01T06:20:53;100610.88;;;16.11;100.00
36380;BME280;22411;53.016;18.632;2023-06-01T06:23:18;100603.72;;;16.23;100.00
36380;BME280;22411;53.016;18.632;2023-06-01T06:25:46;100605.91;;;16.47;100.00
36380;BME280;22411;53.016;18.632;2023-06-01T06:28:12;100597.75;;;16.50;100.00
36380;BME280;22411;53.016;18.632;2023-06-01T06:30:37;100603.38;;;16.65;100.00
36380;BME280;22411;53.016;18.632;2023-06-01T06:33:03;100598.44;;;16.71;100.00
36380;BME280;22411;53.016;18.632;2023-06-01T06:35:29;100602.13;;;16.79;100.00
36380;BME280;22411;53.016;18.632;2023-06-01T06:37:54;100604.59;;;16.80;100.00
36380;BME280;22411;53.016;18.632;2023-06-01T06:40:20;100597.84;;;16.87;100.00
36380;BME280;22411;53.016;18.632;2023-06-01T06:42:46;100604.38;;;17.01;100.00
36380;BME280;22411;53.016;18.632;2023-06-01T06:45:11;100611.94;;;17.14;100.00
36380;BME280;22411;53.016;18.632;2023-06-01T06:47:37;100607.59;;;17.22;100.00
36380;BME280;22411;53.016;18.632;2023-06-01T06:50:03;100598.19;;;17.02;100.00
36380;BME280;22411;53.016;18.632;2023-06-01T06:52:29;100590.59;;;17.09;100.00
36380;BME280;22411;53.016;18.632;2023-06-01T06:54:54;100595.06;;;17.26;100.00
36380;BME280;22411;53.016;18.632;2023-06-01T06:57:20;100586.88;;;17.29;100.00
36380;BME280;22411;53.016;18.632;2023-06-01T06:59:46;100591.78;;;17.42;100.00
36380;BME280;22411;53.016;18.632;2023-06-01T07:02:12;100590.06;;;17.50;100.00
36380;BME280;22411;53.016;18.632;2023-06-01T07:04:39;100588.22;;;17.61;100.00
36380;BME280;22411;53.016;18.632;2023-06-01T07:07:05;100590.50;;;17.73;100.00
36380;BME280;22411;53.016;18.632;2023-06-01T07:09:31;100594.88;;;17.83;100.00
36380;BME280;22411;53.016;18.632;2023-06-01T07:11:57;100581.91;;;17.99;100.00
36380;BME280;22411;53.016;18.632;2023-06-01T07:14:23;100576.34;;;18.02;100.00
36380;BME280;22411;53.016;18.632;2023-06-01T07:16:48;100573.88;;;18.00;100.00
36380;BME280;22411;53.016;18.632;2023-06-01T07:19:14;100570.97;;;18.03;100.00
36380;BME280;22411;53.016;18.632;2023-06-01T07:21:40;100574.25;;;18.06;100.00
36380;BME280;22411;53.016;18.632;2023-06-01T07:24:06;100570.56;;;18.16;100.00
36380;BME280;22411;53.016;18.632;2023-06-01T07:26:32;100572.75;;;18.21;100.00
36380;BME280;22411;53.016;18.632;2023-06-01T07:28:58;100571.03;;;18.38;100.00
36380;BME280;22411;53.016;18.632;2023-06-01T07:31:25;100558.34;;;18.51;100.00
36380;BME280;22411;53.016;18.632;2023-06-01T07:33:53;100564.09;;;18.72;100.00
36380;BME280;22411;53.016;18.632;2023-06-01T07:36:22;100563.59;;;18.77;100.00
36380;BME280;22411;53.016;18.632;2023-06-01T07:38:49;100566.09;;;18.87;100.00
36380;BME280;22411;53.016;18.632;2023-06-01T07:41:16;100565.34;;;18.94;100.00
36380;BME280;22411;53.016;18.632;2023-06-01T07:43:41;100558.97;;;19.05;100.00
36380;BME280;22411;53.016;18.632;2023-06-01T07:46:07;100554.44;;;19.23;100.00
36380;BME280;22411;53.016;18.632;2023-06-01T07:48:33;100554.94;;;19.35;100.00
36380;BME280;22411;53.016;18.632;2023-06-01T07:51:05;100559.41;;;19.43;100.00
36380;BME280;22411;53.016;18.632;2023-06-01T07:53:32;100558.75;;;19.41;100.00
36380;BME280;22411;53.016;18.632;2023-06-01T07:55:58;100559.59;;;19.49;100.00
36380;BME280;22411;53.016;18.632;2023-06-01T07:58:23;100558.16;;;19.71;100.00
36380;BME280;22411;53.016;18.632;2023-06-01T08:00:49;100563.78;;;19.84;100.00
36380;BME280;22411;53.016;18.632;2023-06-01T08:03:15;100549.13;;;19.82;100.00
36380;BME280;22411;53.016;18.632;2023-06-01T08:05:41;100543.56;;;19.93;100.00
36380;BME280;22411;53.016;18.632;2023-06-01T08:08:08;100550.66;;;20.09;100.00
36380;BME280;22411;53.016;18.632;2023-06-01T08:10:34;100551.28;;;20.11;100.00
36380;BME280;22411;53.016;18.632;2023-06-01T08:13:00;100548.66;;;20.03;100.00
36380;BME280;22411;53.016;18.632;2023-06-01T08:15:27;100549.31;;;19.97;100.00
36380;BME280;22411;53.016;18.632;2023-06-01T08:17:54;100538.59;;;20.23;100.00
36380;BME280;22411;53.016;18.632;2023-06-01T08:20:20;100548.63;;;20.27;100.00
36380;BME280;22411;53.016;18.632;2023-06-01T08:22:48;100539.25;;;20.33;100.00
36380;BME280;22411;53.016;18.632;2023-06-01T08:25:14;100535.16;;;20.30;100.00
36380;BME280;22411;53.016;18.632;2023-06-01T08:27:40;100539.06;;;20.34;100.00
36380;BME280;22411;53.016;18.632;2023-06-01T08:30:07;100531.84;;;20.36;100.00
36380;BME280;22411;53.016;18.632;2023-06-01T08:32:33;100533.81;;;20.51;100.00
36380;BME280;22411;53.016;18.632;2023-06-01T08:34:59;100525.63;;;20.85;100.00
36380;BME280;22411;53.016;18.632;2023-06-01T08:37:26;100520.69;;;21.21;100.00
36380;BME280;22411;53.016;18.632;2023-06-01T08:39:51;100522.38;;;21.45;100.00
36380;BME280;22411;53.016;18.632;2023-06-01T08:42:36;100520.31;;;21.32;100.00
36380;BME280;22411;53.016;18.632;2023-06-01T08:45:05;100515.63;;;21.65;100.00
36380;BME280;22411;53.016;18.632;2023-06-01T08:47:31;100521.25;;;21.39;96.46
36380;BME280;22411;53.016;18.632;2023-06-01T08:49:58;100510.38;;;21.43;98.22
36380;BME280;22411;53.016;18.632;2023-06-01T08:52:25;100512.50;;;21.47;96.24
36380;BME280;22411;53.016;18.632;2023-06-01T08:54:54;100511.31;;;21.50;95.13
36380;BME280;22411;53.016;18.632;2023-06-01T08:57:20;100498.84;;;21.81;94.59
36380;BME280;22411;53.016;18.632;2023-06-01T08:59:46;100503.41;;;21.87;93.31
36380;BME280;22411;53.016;18.632;2023-06-01T09:02:13;100498.00;;;21.66;95.47
36380;BME280;22411;53.016;18.632;2023-06-01T09:04:40;100492.75;;;21.81;94.59
36380;BME280;22411;53.016;18.632;2023-06-01T09:07:11;100494.81;;;21.93;91.69
36380;BME280;22411;53.016;18.632;2023-06-01T09:09:37;100500.63;;;22.27;88.43
36380;BME280;22411;53.016;18.632;2023-06-01T09:12:26;100508.50;;;22.12;88.73
36380;BME280;22411;53.016;18.632;2023-06-01T09:17:39;100497.06;;;22.64;89.28
36380;BME280;22411;53.016;18.632;2023-06-01T09:20:06;100488.25;;;22.57;85.31
36380;BME280;22411;53.016;18.632;2023-06-01T09:22:45;100490.59;;;22.22;87.52
36380;BME280;22411;53.016;18.632;2023-06-01T09:25:13;100486.88;;;22.16;87.63
36380;BME280;22411;53.016;18.632;2023-06-01T09:27:47;100492.06;;;22.54;86.94
36380;BME280;22411;53.016;18.632;2023-06-01T09:30:15;100488.84;;;22.74;83.83
36380;BME280;22411;53.016;18.632;2023-06-01T09:32:42;100504.91;;;22.57;84.73
36380;BME280;22411;53.016;18.632;2023-06-01T09:35:08;100488.31;;;22.63;82.16
36380;BME280;22411;53.016;18.632;2023-06-01T09:37:36;100491.38;;;22.96;81.85
36380;BME280;22411;53.016;18.632;2023-06-01T09:40:15;100495.03;;;22.95;82.38
36380;BME280;22411;53.016;18.632;2023-06-01T09:42:44;100502.91;;;23.46;77.44
36380;BME280;22411;53.016;18.632;2023-06-01T09:45:19;100492.31;;;23.25;74.29
36380;BME280;22411;53.016;18.632;2023-06-01T09:47:47;100482.19;;;23.29;73.32
36380;BME280;22411;53.016;18.632;2023-06-01T09:50:35;100476.81;;;23.01;78.26
36380;BME280;22411;53.016;18.632;2023-06-01T09:53:02;100487.22;;;23.23;77.84
36380;BME280;22411;53.016;18.632;2023-06-01T09:55:27;100483.25;;;23.34;78.24
36380;BME280;22411;53.016;18.632;2023-06-01T09:58:17;100483.06;;;24.07;73.41
36380;BME280;22411;53.016;18.632;2023-06-01T10:00:46;100481.38;;;23.71;72.90
36380;BME280;22411;53.016;18.632;2023-06-01T10:03:16;100483.38;;;23.26;77.23
36380;BME280;22411;53.016;18.632;2023-06-01T10:05:46;100474.63;;;23.47;75.65
36380;BME280;22411;53.016;18.632;2023-06-01T10:08:14;100485.22;;;23.68;75.72
36380;BME280;22411;53.016;18.632;2023-06-01T10:10:43;100471.91;;;23.40;76.93
36380;BME280;22411;53.016;18.632;2023-06-01T10:13:10;100466.38;;;24.06;72.84
36380;BME280;22411;53.016;18.632;2023-06-01T10:15:36;100473.00;;;24.58;67.08
36380;BME280;22411;53.016;18.632;2023-06-01T10:18:05;100469.88;;;23.85;70.82
36380;BME280;22411;53.016;18.632;2023-06-01T10:20:33;100462.97;;;24.19;70.36
36380;BME280;22411;53.016;18.632;2023-06-01T10:23:00;100457.34;;;24.29;67.31
36380;BME280;22411;53.016;18.632;2023-06-01T10:25:29;100465.91;;;24.72;66.74
36380;BME280;22411;53.016;18.632;2023-06-01T10:27:59;100471.91;;;24.11;68.41
36380;BME280;22411;53.016;18.632;2023-06-01T10:30:26;100480.13;;;23.67;69.83
36380;BME280;22411;53.016;18.632;2023-06-01T10:32:52;100472.03;;;23.54;71.16
36380;BME280;22411;53.016;18.632;2023-06-01T10:40:41;100470.06;;;22.98;71.50
36380;BME280;22411;53.016;18.632;2023-06-01T10:43:25;100462.91;;;23.13;71.97
36380;BME280;22411;53.016;18.632;2023-06-01T10:45:53;100470.84;;;23.56;70.99
36380;BME280;22411;53.016;18.632;2023-06-01T10:48:52;100467.44;;;23.19;72.54
36380;BME280;22411;53.016;18.632;2023-06-01T10:51:21;100468.75;;;23.52;68.69
36380;BME280;22411;53.016;18.632;2023-06-01T10:53:47;100461.50;;;23.60;65.79
36380;BME280;22411;53.016;18.632;2023-06-01T10:56:26;100466.00;;;23.60;61.62
36380;BME280;22411;53.016;18.632;2023-06-01T11:01:33;100462.38;;;24.17;62.78
36380;BME280;22411;53.016;18.632;2023-06-01T11:04:00;100453.75;;;24.08;64.37
36380;BME280;22411;53.016;18.632;2023-06-01T11:06:32;100452.47;;;24.32;62.93
36380;BME280;22411;53.016;18.632;2023-06-01T11:09:06;100442.44;;;24.62;60.38
36380;BME280;22411;53.016;18.632;2023-06-01T11:14:25;100450.31;;;25.03;60.23
36380;BME280;22411;53.016;18.632;2023-06-01T11:16:55;100449.72;;;25.01;57.78
36380;BME280;22411;53.016;18.632;2023-06-01T11:19:25;100438.94;;;24.55;60.39
36380;BME280;22411;53.016;18.632;2023-06-01T11:22:00;100439.38;;;24.24;63.58
36380;BME280;22411;53.016;18.632;2023-06-01T11:24:33;100442.03;;;24.24;64.02
36380;BME280;22411;53.016;18.632;2023-06-01T11:26:59;100453.59;;;24.51;64.04
36380;BME280;22411;53.016;18.632;2023-06-01T11:29:26;100437.63;;;24.79;63.26
36380;BME280;22411;53.016;18.632;2023-06-01T11:31:54;100437.84;;;24.91;61.75
36380;BME280;22411;53.016;18.632;2023-06-01T11:34:31;100432.03;;;24.61;63.38
36380;BME280;22411;53.016;18.632;2023-06-01T11:36:57;100431.81;;;25.23;61.12
36380;BME280;22411;53.016;18.632;2023-06-01T11:39:25;100438.72;;;24.43;62.90
36380;BME280;22411;53.016;18.632;2023-06-01T11:42:07;100433.78;;;24.95;61.72
36380;BME280;22411;53.016;18.632;2023-06-01T11:44:37;100435.31;;;25.37;60.23
36380;BME280;22411;53.016;18.632;2023-06-01T11:47:06;100433.69;;;25.43;57.44
36380;BME280;22411;53.016;18.632;2023-06-01T11:49:46;100427.56;;;25.75;55.42
36380;BME280;22411;53.016;18.632;2023-06-01T11:52:18;100440.63;;;25.77;54.77
36380;BME280;22411;53.016;18.632;2023-06-01T11:54:46;100426.31;;;25.18;57.06
36380;BME280;22411;53.016;18.632;2023-06-01T11:57:12;100423.28;;;25.74;54.70
36380;BME280;22411;53.016;18.632;2023-06-01T11:59:42;100437.34;;;25.48;55.73
36380;BME280;22411;53.016;18.632;2023-06-01T12:02:25;100420.19;;;25.51;56.44
36380;BME280;22411;53.016;18.632;2023-06-01T12:05:06;100407.75;;;25.78;54.72
36380;BME280;22411;53.016;18.632;2023-06-01T12:07:46;100419.13;;;26.12;52.36
36380;BME280;22411;53.016;18.632;2023-06-01T12:10:13;100417.34;;;25.59;54.34
36380;BME280;22411;53.016;18.632;2023-06-01T12:12:41;100417.97;;;25.28;55.87
36380;BME280;22411;53.016;18.632;2023-06-01T12:15:10;100408.34;;;25.07;56.54
36380;BME280;22411;53.016;18.632;2023-06-01T12:17:49;100412.16;;;25.04;55.06
36380;BME280;22411;53.016;18.632;2023-06-01T12:20:32;100408.66;;;24.71;54.01
36380;BME280;22411;53.016;18.632;2023-06-01T12:23:02;100406.13;;;25.11;52.61
36380;BME280;22411;53.016;18.632;2023-06-01T12:25:31;100404.38;;;24.70;53.54
36380;BME280;22411;53.016;18.632;2023-06-01T12:28:07;100415.03;;;24.96;54.32
36380;BME280;22411;53.016;18.632;2023-06-01T12:30:35;100409.59;;;25.44;53.19
36380;BME280;22411;53.016;18.632;2023-06-01T12:33:01;100405.72;;;25.60;52.06
36380;BME280;22411;53.016;18.632;2023-06-01T12:35:30;100404.72;;;25.21;54.49
36380;BME280;22411;53.016;18.632;2023-06-01T12:40:28;100402.59;;;23.94;56.43
36380;BME280;22411;53.016;18.632;2023-06-01T12:42:54;100392.88;;;24.49;54.64
36380;BME280;22411;53.016;18.632;2023-06-01T12:45:20;100404.16;;;24.78;51.05
36380;BME280;22411;53.016;18.632;2023-06-01T12:47:46;100402.88;;;25.22;49.96
36380;BME280;22411;53.016;18.632;2023-06-01T12:50:12;100401.03;;;25.22;43.26
36380;BME280;22411;53.016;18.632;2023-06-01T12:52:40;100397.94;;;25.52;46.37
36380;BME280;22411;53.016;18.632;2023-06-01T12:55:07;100402.03;;;25.35;46.95
36380;BME280;22411;53.016;18.632;2023-06-01T12:57:35;100397.94;;;25.25;46.30
36380;BME280;22411;53.016;18.632;2023-06-01T13:00:01;100377.09;;;25.02;44.83
36380;BME280;22411;53.016;18.632;2023-06-01T13:02:28;100385.31;;;25.27;43.04
36380;BME280;22411;53.016;18.632;2023-06-01T13:04:55;100388.91;;;24.80;46.96